Time;durP1;ratioP1;P1;durP2;ratioP2;P2;SDS_P1;SDS_P2;PMS_P1;PMS_P2;Temp;Humidity;BMP_temperature;BMP_pressure;BME280_temperature;BME280_humidity;BME280_pressure;Samples;Min_cycle;Max_cycle;Signal;HPM_P1;HPM_P2
2020/12/17 00:01:27;;;;;;;89.00;47.70;;;3.90;99.90;;;;;;5051213;28;20072;-74
2020/12/17 00:03:53;;;;;;;92.05;48.35;;;3.90;99.90;;;;;;5047979;28;20422;-74
2020/12/17 00:06:34;;;;;;;83.32;44.80;;;3.90;99.90;;;;;;5049443;28;20060;-73
2020/12/17 00:09:01;;;;;;;96.60;48.17;;;3.90;99.90;;;;;;5049798;28;20455;-75
2020/12/17 00:11:28;;;;;;;91.00;46.85;;;3.90;99.90;;;;;;5039427;28;20049;-75
2020/12/17 00:13:55;;;;;;;95.55;48.40;;;3.90;99.90;;;;;;5044309;28;20067;-77
2020/12/17 00:16:22;;;;;;;91.30;48.03;;;3.90;99.90;;;;;;5040721;28;20068;-75
2020/12/17 00:18:52;;;;;;;83.47;45.92;;;3.90;99.90;;;;;;5043697;28;20081;-76
2020/12/17 00:21:20;;;;;;;79.18;45.28;;;3.90;99.90;;;;;;5039991;28;20459;-73
2020/12/17 00:23:46;;;;;;;82.38;42.55;;;3.90;99.90;;;;;;5047151;28;20041;-74
2020/12/17 00:26:13;;;;;;;73.97;40.95;;;3.90;99.90;;;;;;5044298;28;20158;-73
2020/12/17 00:28:39;;;;;;;60.63;37.88;;;3.70;99.90;;;;;;5043673;28;20049;-74
2020/12/17 00:31:05;;;;;;;63.50;37.78;;;3.60;99.90;;;;;;5044583;28;20116;-75
2020/12/17 00:33:32;;;;;;;65.35;36.67;;;3.60;99.90;;;;;;5041615;28;20538;-73
2020/12/17 00:35:59;;;;;;;55.88;33.08;;;3.50;99.90;;;;;;5044539;28;20064;-74
2020/12/17 00:38:26;;;;;;;64.47;34.25;;;3.40;99.90;;;;;;5046281;28;20453;-73
2020/12/17 00:40:52;;;;;;;56.25;34.13;;;3.50;99.90;;;;;;5038663;28;20129;-74
2020/12/17 00:43:19;;;;;;;63.05;35.70;;;3.40;99.90;;;;;;5043053;28;20120;-74
2020/12/17 00:45:46;;;;;;;58.65;33.95;;;3.40;99.90;;;;;;5046060;28;20544;-74
2020/12/17 00:48:13;;;;;;;56.00;33.15;;;3.40;99.90;;;;;;5042469;28;20128;-74
2020/12/17 00:50:40;;;;;;;61.45;35.35;;;3.40;99.90;;;;;;5043982;28;20096;-73
2020/12/17 00:53:06;;;;;;;59.35;35.97;;;3.40;99.90;;;;;;5042768;28;20041;-75
2020/12/17 00:55:32;;;;;;;52.33;32.38;;;3.40;99.90;;;;;;5045027;28;20091;-74
2020/12/17 00:57:59;;;;;;;60.20;34.67;;;3.30;99.90;;;;;;5043193;28;20119;-75
2020/12/17 01:00:26;;;;;;;48.28;30.65;;;3.30;99.90;;;;;;5046489;28;20052;-75
2020/12/17 01:02:52;;;;;;;52.00;31.33;;;3.20;99.90;;;;;;5046021;28;20100;-74
2020/12/17 01:05:19;;;;;;;54.22;31.58;;;3.40;99.90;;;;;;5040196;28;20052;-74
2020/12/17 01:07:45;;;;;;;63.13;36.28;;;3.40;99.90;;;;;;5036802;28;20492;-75
2020/12/17 01:10:12;;;;;;;63.65;36.40;;;3.40;99.90;;;;;;5040422;28;20096;-75
2020/12/17 01:12:41;;;;;;;66.82;36.88;;;3.50;99.90;;;;;;5043502;28;20133;-74
2020/12/17 01:15:07;;;;;;;65.40;33.97;;;3.50;99.90;;;;;;5038774;28;20041;-75
2020/12/17 01:17:34;;;;;;;60.67;34.35;;;3.50;99.90;;;;;;5049619;28;20175;-76
2020/12/17 01:20:00;;;;;;;60.67;36.38;;;3.50;99.90;;;;;;5042953;28;20447;-75
2020/12/17 01:22:26;;;;;;;55.47;33.80;;;3.30;99.90;;;;;;5041786;28;20445;-74
2020/12/17 01:24:53;;;;;;;55.20;33.58;;;3.40;99.90;;;;;;5041886;28;20452;-75
2020/12/17 01:27:19;;;;;;;56.78;34.55;;;3.40;99.90;;;;;;5042266;28;20457;-75
2020/12/17 01:29:46;;;;;;;60.05;35.40;;;3.40;99.90;;;;;;5043606;28;20124;-75
2020/12/17 01:32:12;;;;;;;59.38;36.10;;;3.30;99.90;;;;;;5044152;28;20120;-75
2020/12/17 01:34:38;;;;;;;70.30;37.17;;;3.30;99.90;;;;;;5041121;28;20121;-74
2020/12/17 01:37:18;;;;;;;54.20;34.33;;;3.20;99.90;;;;;;5039661;28;20041;-75
2020/12/17 01:39:44;;;;;;;54.30;33.88;;;3.30;99.90;;;;;;5038623;28;20469;-75
2020/12/17 01:42:11;;;;;;;60.60;33.85;;;3.40;99.90;;;;;;5043749;28;20080;-75
2020/12/17 01:44:46;;;;;;;55.03;31.52;;;3.30;99.90;;;;;;5046871;28;20040;-74
2020/12/17 01:47:12;;;;;;;51.45;30.83;;;3.20;99.90;;;;;;5045795;28;20064;-74
2020/12/17 01:49:39;;;;;;;47.72;30.30;;;3.10;99.90;;;;;;5041061;28;20081;-75
2020/12/17 01:52:06;;;;;;;55.22;32.60;;;3.10;99.90;;;;;;5046280;28;20041;-76
2020/12/17 01:54:33;;;;;;;54.88;33.53;;;3.30;99.90;;;;;;5045797;28;20072;-75
2020/12/17 01:57:03;;;;;;;60.00;35.55;;;3.30;99.90;;;;;;5045722;28;20456;-77
2020/12/17 01:59:47;;;;;;;54.13;34.08;;;3.40;99.90;;;;;;5044715;28;20041;-75
2020/12/17 02:02:19;;;;;;;63.03;36.47;;;3.40;99.90;;;;;;5047368;28;20041;-74
2020/12/17 02:04:46;;;;;;;54.95;35.13;;;3.50;99.90;;;;;;5047111;28;20122;-75
2020/12/17 02:07:13;;;;;;;60.97;35.10;;;3.50;99.90;;;;;;5045085;28;20072;-75
2020/12/17 02:09:39;;;;;;;53.50;33.85;;;3.50;99.90;;;;;;5043637;28;20045;-76
2020/12/17 02:12:07;;;;;;;57.90;33.30;;;3.50;99.90;;;;;;5043388;28;20101;-76
2020/12/17 02:14:33;;;;;;;51.33;30.05;;;3.30;99.90;;;;;;5050268;28;20083;-74
2020/12/17 02:17:00;;;;;;;49.47;28.70;;;3.20;99.90;;;;;;5052860;28;20053;-76
2020/12/17 02:19:26;;;;;;;52.50;29.08;;;3.00;99.90;;;;;;5048337;28;20202;-74
2020/12/17 02:21:55;;;;;;;53.15;30.85;;;3.00;99.90;;;;;;5046391;28;20084;-75
2020/12/17 02:24:23;;;;;;;54.13;31.42;;;3.00;99.90;;;;;;5047501;28;20049;-74
2020/12/17 02:26:51;;;;;;;51.95;30.65;;;3.10;99.90;;;;;;5048880;28;20055;-74
2020/12/17 02:29:18;;;;;;;62.33;34.22;;;3.20;99.90;;;;;;5047513;28;20048;-75
2020/12/17 02:31:44;;;;;;;60.13;34.30;;;3.20;99.90;;;;;;5052027;28;20510;-75
2020/12/17 02:34:13;;;;;;;63.33;36.83;;;3.20;99.90;;;;;;5051632;28;20424;-74
2020/12/17 02:36:40;;;;;;;63.22;35.70;;;3.20;99.90;;;;;;5049925;28;20049;-74
2020/12/17 02:39:06;;;;;;;66.20;37.42;;;3.20;99.90;;;;;;5048933;28;20049;-75
2020/12/17 02:41:33;;;;;;;65.93;37.67;;;3.40;99.90;;;;;;5048471;28;20073;-74
2020/12/17 02:43:59;;;;;;;62.00;35.60;;;3.40;99.90;;;;;;5047867;28;20044;-75
2020/12/17 02:46:26;;;;;;;62.10;36.35;;;3.30;99.90;;;;;;5049472;28;20511;-76
2020/12/17 02:48:53;;;;;;;75.13;38.72;;;3.20;99.90;;;;;;5050826;28;20091;-74
2020/12/17 02:51:20;;;;;;;62.60;35.60;;;3.20;99.90;;;;;;5047465;28;20111;-75
2020/12/17 02:53:47;;;;;;;65.53;35.75;;;3.10;99.90;;;;;;5047972;28;20076;-74
2020/12/17 02:56:15;;;;;;;67.80;36.95;;;3.00;99.90;;;;;;5048406;28;20124;-74
2020/12/17 02:58:42;;;;;;;70.25;38.17;;;3.00;99.90;;;;;;5050462;28;20077;-75
2020/12/17 03:01:09;;;;;;;70.53;36.55;;;3.00;99.90;;;;;;5050728;28;20076;-76
2020/12/17 03:03:36;;;;;;;71.05;38.95;;;3.00;99.90;;;;;;5048556;28;20049;-76
2020/12/17 03:06:04;;;;;;;79.63;39.15;;;3.00;99.90;;;;;;5051463;28;20056;-75
2020/12/17 03:08:31;;;;;;;78.32;40.67;;;3.00;99.90;;;;;;5046673;28;20049;-74
2020/12/17 03:10:58;;;;;;;75.82;40.15;;;3.00;99.90;;;;;;5045680;28;20487;-75
2020/12/17 03:13:25;;;;;;;81.30;41.55;;;3.20;99.90;;;;;;5050060;28;20064;-74
2020/12/17 03:15:51;;;;;;;82.88;41.70;;;3.20;99.90;;;;;;5050622;28;20144;-73
2020/12/17 03:18:18;;;;;;;88.53;43.08;;;3.30;99.90;;;;;;5051646;28;20084;-75
2020/12/17 03:20:44;;;;;;;88.47;43.50;;;3.30;99.90;;;;;;5051175;28;20077;-73
2020/12/17 03:23:11;;;;;;;94.82;44.15;;;3.30;99.90;;;;;;5049177;28;20116;-74
2020/12/17 03:25:37;;;;;;;88.60;44.70;;;3.30;99.90;;;;;;5047757;28;20491;-75
2020/12/17 03:28:04;;;;;;;86.57;42.78;;;3.20;99.90;;;;;;5050164;28;20061;-74
2020/12/17 03:30:31;;;;;;;88.95;42.42;;;3.30;99.90;;;;;;5048611;28;20045;-74
2020/12/17 03:32:58;;;;;;;85.97;44.33;;;3.20;99.90;;;;;;5051039;28;20140;-75
2020/12/17 03:35:25;;;;;;;91.30;44.08;;;3.10;99.90;;;;;;5049840;28;20176;-74
2020/12/17 03:37:51;;;;;;;101.90;45.03;;;3.20;99.90;;;;;;5047974;28;20441;-74
2020/12/17 03:40:19;;;;;;;97.18;46.67;;;3.20;99.90;;;;;;5050235;28;20121;-74
2020/12/17 03:42:45;;;;;;;99.35;46.53;;;3.30;99.90;;;;;;5045751;28;20129;-75
2020/12/17 03:45:11;;;;;;;92.15;44.70;;;3.40;99.90;;;;;;5047850;28;20496;-74
2020/12/17 03:47:38;;;;;;;102.00;47.15;;;3.50;99.90;;;;;;5049235;28;20041;-74
2020/12/17 03:50:04;;;;;;;105.30;49.85;;;3.60;99.90;;;;;;5038111;28;20076;-76
2020/12/17 03:52:36;;;;;;;94.13;49.95;;;3.70;99.90;;;;;;5044754;28;20045;-73
2020/12/17 03:55:03;;;;;;;95.63;47.47;;;3.80;99.90;;;;;;5045213;28;20068;-73
2020/12/17 03:57:33;;;;;;;89.90;45.03;;;3.90;99.90;;;;;;5047720;28;20045;-73
2020/12/17 04:00:00;;;;;;;81.90;43.42;;;4.00;99.90;;;;;;5050411;28;20072;-75
2020/12/17 04:02:51;;;;;;;84.25;44.40;;;4.00;99.90;;;;;;5047718;28;20126;-73
2020/12/17 04:05:17;;;;;;;81.10;44.17;;;4.00;99.90;;;;;;5049824;28;20147;-73
2020/12/17 04:08:08;;;;;;;74.40;40.67;;;4.00;99.90;;;;;;5048928;28;20171;-74
2020/12/17 04:10:34;;;;;;;67.43;39.70;;;4.00;99.90;;;;;;5047478;28;20161;-75
2020/12/17 04:13:01;;;;;;;72.13;38.92;;;4.00;99.90;;;;;;5049519;28;20441;-75
2020/12/17 04:15:27;;;;;;;76.03;39.63;;;4.00;99.90;;;;;;5050202;28;20037;-73
2020/12/17 04:17:54;;;;;;;75.10;39.38;;;4.00;99.90;;;;;;5049901;28;20447;-74
2020/12/17 04:20:20;;;;;;;63.85;37.08;;;4.00;99.90;;;;;;5048575;28;20124;-74
2020/12/17 04:22:47;;;;;;;72.10;39.28;;;3.90;99.90;;;;;;5045812;28;20092;-73
2020/12/17 04:25:13;;;;;;;73.32;39.20;;;3.90;99.90;;;;;;5048732;28;20132;-74
2020/12/17 04:27:39;;;;;;;71.82;39.38;;;3.90;99.90;;;;;;5048817;28;20415;-75
2020/12/17 04:30:06;;;;;;;75.43;38.70;;;3.80;99.90;;;;;;5048581;28;20136;-76
2020/12/17 04:32:32;;;;;;;73.38;39.28;;;3.80;99.90;;;;;;5048974;28;20072;-74
2020/12/17 04:34:59;;;;;;;77.22;39.22;;;3.80;99.90;;;;;;5047793;28;20106;-76
2020/12/17 04:37:25;;;;;;;66.78;38.03;;;3.70;99.90;;;;;;5048614;28;20438;-74
2020/12/17 04:39:51;;;;;;;72.82;39.72;;;3.70;99.90;;;;;;5048695;28;20120;-74
2020/12/17 04:42:19;;;;;;;71.15;36.67;;;3.60;99.90;;;;;;5048699;28;20091;-74
2020/12/17 04:44:47;;;;;;;67.30;36.08;;;3.60;99.90;;;;;;5049462;28;20073;-74
2020/12/17 04:47:19;;;;;;;65.32;36.50;;;3.70;99.90;;;;;;5049369;28;20141;-75
2020/12/17 04:49:50;;;;;;;66.90;36.83;;;3.70;99.90;;;;;;5046639;28;20124;-74
2020/12/17 04:52:17;;;;;;;60.78;34.70;;;3.70;99.90;;;;;;5049169;28;20153;-75
2020/12/17 04:54:45;;;;;;;60.60;34.83;;;3.70;99.90;;;;;;5044921;28;20526;-75
2020/12/17 04:57:13;;;;;;;57.60;33.40;;;3.60;99.90;;;;;;5047313;28;20084;-75
2020/12/17 04:59:49;;;;;;;61.17;32.88;;;3.50;99.90;;;;;;5048769;28;20068;-75
2020/12/17 05:02:19;;;;;;;64.20;35.10;;;3.50;99.90;;;;;;5049180;28;20045;-74
2020/12/17 05:04:48;;;;;;;61.58;34.85;;;3.40;99.90;;;;;;5048525;28;20140;-75
2020/12/17 05:07:17;;;;;;;59.75;34.63;;;3.40;99.90;;;;;;5048937;28;20170;-75
2020/12/17 05:09:45;;;;;;;59.45;33.78;;;3.40;99.90;;;;;;5046887;28;20076;-75
2020/12/17 05:12:13;;;;;;;55.42;32.10;;;3.40;99.90;;;;;;5047652;28;20045;-75
2020/12/17 05:14:40;;;;;;;51.92;30.77;;;3.50;99.90;;;;;;5048767;28;20061;-75
2020/12/17 05:17:07;;;;;;;46.30;28.60;;;3.70;99.90;;;;;;5049047;28;20106;-77
2020/12/17 05:19:34;;;;;;;45.70;27.70;;;3.70;99.90;;;;;;5048774;28;20531;-74
2020/12/17 05:22:04;;;;;;;42.28;27.70;;;3.70;99.90;;;;;;5048788;28;20090;-76
2020/12/17 05:24:31;;;;;;;42.15;27.05;;;3.60;99.90;;;;;;5048061;28;20065;-74
2020/12/17 05:26:59;;;;;;;41.97;26.45;;;3.60;99.90;;;;;;5044724;28;20041;-75
2020/12/17 05:29:26;;;;;;;42.72;27.13;;;3.60;99.90;;;;;;5046886;28;20052;-75
2020/12/17 05:31:53;;;;;;;38.45;24.23;;;3.50;99.90;;;;;;5048474;28;20041;-76
2020/12/17 05:34:19;;;;;;;41.20;25.90;;;3.50;99.90;;;;;;5046584;28;20100;-75
2020/12/17 05:36:47;;;;;;;38.53;25.00;;;3.40;99.90;;;;;;5047122;28;20122;-74
2020/12/17 05:39:24;;;;;;;37.63;23.58;;;3.40;99.90;;;;;;5046708;28;20053;-75
2020/12/17 05:41:53;;;;;;;35.97;23.13;;;3.40;99.90;;;;;;5043855;28;20076;-75
2020/12/17 05:44:29;;;;;;;34.60;21.17;;;3.50;99.90;;;;;;5046913;28;20080;-75
2020/12/17 05:46:57;;;;;;;35.47;23.02;;;3.40;99.90;;;;;;5046534;28;20077;-74
2020/12/17 05:49:26;;;;;;;32.10;21.42;;;3.30;99.90;;;;;;5047821;28;20441;-74
2020/12/17 05:52:14;;;;;;;33.78;21.67;;;3.20;99.90;;;;;;5045492;28;20823;-77
2020/12/17 05:55:01;;;;;;;33.08;21.08;;;3.10;99.90;;;;;;5045814;28;20056;-75
2020/12/17 05:57:28;;;;;;;31.65;20.88;;;3.20;99.90;;;;;;5046812;28;20048;-75
2020/12/17 05:59:54;;;;;;;28.90;18.58;;;3.20;99.90;;;;;;5047360;28;20103;-75
2020/12/17 06:02:26;;;;;;;28.80;18.75;;;3.20;99.90;;;;;;5047615;28;20171;-74
2020/12/17 06:05:08;;;;;;;25.65;17.85;;;3.20;99.90;;;;;;5043990;28;20127;-74
2020/12/17 06:07:41;;;;;;;25.42;18.25;;;3.20;99.90;;;;;;5044626;28;20357;-75
2020/12/17 06:10:26;;;;;;;29.75;17.77;;;3.20;99.90;;;;;;5044198;28;20084;-75
2020/12/17 06:13:03;;;;;;;29.42;17.40;;;3.20;99.90;;;;;;5043335;28;20135;-75
2020/12/17 06:15:30;;;;;;;26.27;16.55;;;3.20;99.90;;;;;;5048247;28;20385;-75
2020/12/17 06:17:57;;;;;;;25.00;16.60;;;3.10;99.90;;;;;;5040205;28;20126;-76
2020/12/17 06:20:25;;;;;;;22.55;15.38;;;3.20;99.90;;;;;;5046747;28;20057;-74
2020/12/17 06:22:56;;;;;;;19.35;13.57;;;3.20;99.90;;;;;;5044655;28;20095;-74
2020/12/17 06:25:24;;;;;;;19.55;13.02;;;3.30;99.90;;;;;;5045595;28;20511;-75
2020/12/17 06:27:51;;;;;;;19.88;13.95;;;3.30;99.90;;;;;;5045547;28;20048;-74
2020/12/17 06:30:26;;;;;;;19.33;12.70;;;3.30;99.90;;;;;;5045928;28;20049;-74
2020/12/17 06:32:54;;;;;;;18.33;13.20;;;3.30;99.90;;;;;;5044929;28;20107;-74
2020/12/17 06:35:39;;;;;;;18.65;13.30;;;3.20;99.90;;;;;;5044572;28;20131;-75
2020/12/17 06:38:11;;;;;;;18.50;13.13;;;3.20;99.90;;;;;;5045987;28;20056;-75
2020/12/17 06:40:38;;;;;;;14.13;10.47;;;3.10;99.90;;;;;;5045324;28;20068;-74
2020/12/17 06:43:31;;;;;;;17.30;11.93;;;3.10;99.90;;;;;;5046583;28;20132;-74
2020/12/17 06:46:00;;;;;;;18.80;11.85;;;3.20;99.90;;;;;;5046752;28;20113;-75
2020/12/17 06:48:41;;;;;;;15.02;10.60;;;3.30;99.90;;;;;;5046076;28;20048;-73
2020/12/17 06:51:39;;;;;;;15.30;10.95;;;3.30;99.90;;;;;;5046163;28;20063;-74
2020/12/17 06:54:28;;;;;;;12.45;10.43;;;3.40;99.90;;;;;;5044338;28;20037;-74
2020/12/17 06:57:13;;;;;;;13.27;10.38;;;3.40;99.90;;;;;;5044895;28;20133;-76
2020/12/17 06:59:41;;;;;;;14.15;10.32;;;3.40;99.90;;;;;;5047704;28;20040;-73
2020/12/17 07:02:08;;;;;;;17.90;10.65;;;3.50;99.90;;;;;;5049890;28;20114;-75
2020/12/17 07:04:41;;;;;;;13.77;10.50;;;3.50;99.90;;;;;;5050781;28;20509;-76
2020/12/17 07:07:18;;;;;;;13.50;10.18;;;3.50;99.90;;;;;;5049437;28;20069;-74
2020/12/17 07:09:48;;;;;;;14.43;10.43;;;3.50;99.90;;;;;;5049003;28;20435;-74
2020/12/17 07:12:37;;;;;;;13.98;9.82;;;3.50;99.90;;;;;;5048747;28;20044;-74
2020/12/17 07:15:05;;;;;;;18.08;10.40;;;3.40;99.90;;;;;;5048826;28;20102;-75
2020/12/17 07:17:32;;;;;;;13.48;10.00;;;3.40;99.90;;;;;;5049794;28;20436;-74
2020/12/17 07:19:58;;;;;;;12.75;9.55;;;3.40;99.90;;;;;;5050390;28;20049;-75
2020/12/17 07:22:25;;;;;;;13.80;9.57;;;3.50;99.90;;;;;;5050767;28;20049;-74
2020/12/17 07:24:53;;;;;;;12.95;9.68;;;3.50;99.90;;;;;;5050517;28;20073;-74
2020/12/17 07:27:31;;;;;;;27.15;16.58;;;3.50;99.90;;;;;;5049528;28;20551;-75
2020/12/17 07:29:58;;;;;;;14.50;10.52;;;3.50;99.90;;;;;;5049488;28;20201;-77
2020/12/17 07:32:33;;;;;;;14.63;10.43;;;3.40;99.90;;;;;;5050913;28;20497;-75
2020/12/17 07:35:15;;;;;;;13.93;10.07;;;3.40;99.90;;;;;;5049555;28;20076;-77
2020/12/17 07:37:45;;;;;;;14.02;9.75;;;3.40;99.90;;;;;;5048997;28;20069;-76
2020/12/17 07:40:12;;;;;;;15.48;10.93;;;3.40;99.90;;;;;;5049268;28;20135;-74
2020/12/17 07:42:38;;;;;;;18.88;11.85;;;3.40;99.90;;;;;;5049530;28;20263;-73
2020/12/17 07:45:06;;;;;;;17.83;10.25;;;3.40;99.90;;;;;;5050756;28;20068;-74
2020/12/17 07:47:33;;;;;;;20.27;12.27;;;3.60;99.90;;;;;;5044016;28;20084;-73
2020/12/17 07:49:59;;;;;;;12.48;9.55;;;3.60;99.90;;;;;;5049068;28;20037;-74
2020/12/17 07:52:34;;;;;;;15.02;9.15;;;3.70;99.90;;;;;;5050021;28;20057;-74
2020/12/17 07:55:02;;;;;;;15.77;8.70;;;3.80;99.90;;;;;;5047883;28;20129;-74
2020/12/17 07:57:29;;;;;;;14.38;8.80;;;3.90;99.90;;;;;;5049608;28;20114;-73
2020/12/17 07:59:55;;;;;;;11.32;8.77;;;3.90;99.90;;;;;;5048636;28;20190;-73
2020/12/17 08:02:22;;;;;;;14.93;10.10;;;4.00;99.90;;;;;;5048545;28;20064;-73
2020/12/17 08:04:56;;;;;;;13.77;9.98;;;4.00;99.90;;;;;;5049512;28;20456;-73
2020/12/17 08:07:23;;;;;;;13.77;9.60;;;4.10;99.90;;;;;;5049631;28;20488;-74
2020/12/17 08:09:59;;;;;;;14.05;10.07;;;4.20;99.90;;;;;;5047658;28;20945;-73
2020/12/17 08:12:26;;;;;;;14.00;10.07;;;4.20;99.90;;;;;;5045928;28;20416;-73
2020/12/17 08:15:06;;;;;;;17.55;8.93;;;4.30;99.90;;;;;;5048423;28;20041;-73
2020/12/17 08:17:33;;;;;;;13.27;8.10;;;4.30;99.90;;;;;;5049958;28;20057;-73
2020/12/17 08:19:59;;;;;;;12.50;9.02;;;4.40;99.90;;;;;;5049204;28;20049;-74
2020/12/17 08:22:28;;;;;;;12.40;8.85;;;4.40;99.90;;;;;;5043824;28;20065;-74
2020/12/17 08:25:03;;;;;;;11.98;7.88;;;4.50;99.90;;;;;;5047893;28;20079;-74
2020/12/17 08:27:30;;;;;;;12.43;8.43;;;4.50;99.90;;;;;;5049470;28;20049;-74
2020/12/17 08:29:56;;;;;;;10.48;7.70;;;4.60;99.90;;;;;;5048791;28;20088;-74
2020/12/17 08:32:23;;;;;;;11.68;8.32;;;4.60;99.90;;;;;;5049599;28;20056;-74
2020/12/17 08:34:56;;;;;;;11.32;7.97;;;4.60;99.90;;;;;;5049466;28;20140;-74
2020/12/17 08:37:23;;;;;;;12.65;8.52;;;4.60;99.90;;;;;;5049532;28;20464;-74
2020/12/17 08:40:05;;;;;;;10.10;7.53;;;4.70;99.90;;;;;;5044816;28;20072;-74
2020/12/17 08:42:35;;;;;;;10.05;7.30;;;4.80;99.90;;;;;;5046822;28;20159;-75
2020/12/17 08:45:08;;;;;;;11.05;7.93;;;4.90;99.90;;;;;;5049800;28;20037;-74
2020/12/17 08:47:40;;;;;;;8.93;7.63;;;4.90;99.90;;;;;;5047669;28;20086;-74
2020/12/17 08:50:09;;;;;;;10.20;7.53;;;5.00;99.90;;;;;;5049257;28;20396;-74
2020/12/17 08:52:36;;;;;;;12.25;8.05;;;5.00;99.90;;;;;;5048188;28;20411;-74
2020/12/17 08:55:05;;;;;;;10.85;7.43;;;5.00;99.90;;;;;;5047546;28;20040;-74
2020/12/17 08:57:32;;;;;;;9.18;8.02;;;5.00;99.90;;;;;;5058368;28;20071;-75
2020/12/17 08:59:59;;;;;;;13.15;8.45;;;5.10;99.90;;;;;;5046987;28;20045;-75
2020/12/17 09:02:30;;;;;;;11.10;8.32;;;5.10;99.90;;;;;;5049503;28;20553;-74
2020/12/17 09:05:06;;;;;;;13.20;8.85;;;5.20;99.90;;;;;;5047968;28;20041;-74
2020/12/17 09:07:32;;;;;;;14.48;7.95;;;5.30;99.90;;;;;;5047507;28;20186;-75
2020/12/17 09:10:33;;;;;;;12.77;7.97;;;5.30;99.90;;;;;;5045575;28;20576;-76
2020/12/17 09:13:00;;;;;;;10.98;7.35;;;5.30;99.90;;;;;;5046441;28;20049;-75
2020/12/17 09:15:28;;;;;;;10.70;8.20;;;5.30;99.90;;;;;;5048950;28;20490;-75
2020/12/17 09:18:09;;;;;;;11.77;7.63;;;5.30;99.90;;;;;;5048536;28;20148;-75
2020/12/17 09:20:36;;;;;;;10.43;7.50;;;5.40;99.90;;;;;;5040555;28;20053;-74
2020/12/17 09:23:09;;;;;;;9.82;6.80;;;5.50;99.90;;;;;;5047472;28;20076;-74
2020/12/17 09:25:36;;;;;;;11.30;7.72;;;5.60;99.90;;;;;;5046632;28;20384;-75
2020/12/17 09:28:04;;;;;;;12.05;8.18;;;5.70;99.90;;;;;;5048286;28;20098;-74
2020/12/17 09:30:33;;;;;;;8.45;6.55;;;5.70;99.90;;;;;;5047038;28;20045;-74
2020/12/17 09:33:03;;;;;;;8.25;6.40;;;6.10;99.90;;;;;;5044789;28;20500;-75
2020/12/17 09:35:32;;;;;;;8.65;6.25;;;7.10;99.90;;;;;;5047374;28;20045;-75
2020/12/17 09:38:03;;;;;;;7.53;5.43;;;8.20;99.90;;;;;;5046003;28;20056;-74
2020/12/17 09:40:31;;;;;;;6.75;4.82;;;9.00;99.90;;;;;;5048190;28;20118;-73
2020/12/17 09:43:06;;;;;;;7.43;4.72;;;9.50;99.90;;;;;;5047862;28;20117;-74
2020/12/17 09:45:35;;;;;;;6.75;5.15;;;9.90;99.90;;;;;;5046827;28;20052;-73
2020/12/17 09:48:30;;;;;;;6.70;4.90;;;10.00;99.90;;;;;;5046143;28;20041;-76
2020/12/17 09:51:07;;;;;;;7.35;5.57;;;10.30;99.90;;;;;;5044922;28;20148;-75
2020/12/17 09:53:38;;;;;;;8.40;4.90;;;10.50;99.90;;;;;;5043450;28;20049;-73
2020/12/17 09:56:12;;;;;;;7.63;5.15;;;10.80;99.90;;;;;;5046298;28;20055;-76
2020/12/17 09:58:46;;;;;;;9.18;5.40;;;11.10;99.90;;;;;;5046566;28;20487;-73
2020/12/17 10:01:16;;;;;;;8.35;5.43;;;10.70;99.90;;;;;;5047021;28;20057;-75
2020/12/17 10:03:43;;;;;;;5.85;4.45;;;11.40;99.90;;;;;;5047339;28;20080;-74
2020/12/17 10:06:10;;;;;;;8.10;4.70;;;11.90;99.90;;;;;;5046435;28;20056;-74
2020/12/17 10:08:37;;;;;;;7.18;5.10;;;11.30;99.90;;;;;;5046721;28;20128;-74
2020/12/17 10:11:07;;;;;;;7.25;5.20;;;10.20;99.90;;;;;;5046649;28;20071;-77
2020/12/17 10:13:35;;;;;;;6.15;5.28;;;9.90;99.90;;;;;;5045946;28;20049;-74
2020/12/17 10:16:02;;;;;;;8.13;5.50;;;10.10;99.90;;;;;;5047156;28;20037;-73
2020/12/17 10:18:29;;;;;;;7.53;5.35;;;10.00;99.90;;;;;;5045089;28;20174;-73
2020/12/17 10:20:56;;;;;;;7.13;5.07;;;9.90;99.90;;;;;;5047484;28;20045;-73
2020/12/17 10:23:23;;;;;;;10.07;5.22;;;9.60;99.90;;;;;;5048479;28;20049;-73
2020/12/17 10:25:50;;;;;;;8.40;5.43;;;9.20;99.90;;;;;;5045020;28;20389;-73
2020/12/17 10:28:16;;;;;;;9.88;5.05;;;9.40;99.90;;;;;;5047771;28;20163;-73
2020/12/17 10:30:43;;;;;;;6.85;4.68;;;10.00;99.90;;;;;;5047745;28;20114;-72
2020/12/17 10:33:10;;;;;;;10.98;5.28;;;9.90;99.90;;;;;;5046913;28;20045;-73
2020/12/17 10:35:36;;;;;;;7.50;5.68;;;9.40;99.90;;;;;;5047510;28;20099;-72
2020/12/17 10:38:03;;;;;;;8.88;5.63;;;9.10;99.90;;;;;;5052148;28;20052;-73
2020/12/17 10:40:30;;;;;;;8.73;5.32;;;8.80;99.90;;;;;;5047928;28;20096;-73
2020/12/17 10:43:05;;;;;;;8.25;5.85;;;8.80;99.90;;;;;;5049162;28;20064;-74
2020/12/17 10:45:31;;;;;;;7.88;6.00;;;8.70;99.90;;;;;;5051288;28;20114;-73
2020/12/17 10:47:58;;;;;;;10.43;6.32;;;8.40;99.90;;;;;;5048384;28;20068;-73
2020/12/17 10:50:25;;;;;;;8.57;6.38;;;8.10;99.90;;;;;;5051517;28;20049;-73
2020/12/17 10:52:52;;;;;;;9.32;6.50;;;8.10;99.90;;;;;;5051767;28;20052;-75
2020/12/17 10:55:18;;;;;;;7.88;5.72;;;8.80;99.90;;;;;;5049180;28;20073;-73
2020/12/17 10:57:48;;;;;;;9.43;6.53;;;9.40;99.90;;;;;;5049760;28;20059;-74
2020/12/17 11:00:23;;;;;;;12.70;6.88;;;9.80;99.90;;;;;;5051000;28;20049;-75
2020/12/17 11:03:04;;;;;;;9.32;6.22;;;9.60;99.90;;;;;;5051559;28;20475;-75
2020/12/17 11:05:41;;;;;;;9.85;7.03;;;9.10;99.90;;;;;;5042854;28;20076;-74
2020/12/17 11:08:18;;;;;;;11.70;7.05;;;8.70;99.90;;;;;;5051068;28;20045;-73
2020/12/17 11:10:50;;;;;;;9.90;6.97;;;8.40;99.90;;;;;;5048919;28;20103;-73
2020/12/17 11:13:25;;;;;;;10.68;6.25;;;8.30;99.90;;;;;;5050556;28;20045;-73
2020/12/17 11:16:03;;;;;;;7.40;6.10;;;8.40;99.90;;;;;;5048416;28;20053;-73
2020/12/17 11:18:40;;;;;;;9.20;6.13;;;8.30;99.90;;;;;;5049206;28;20057;-73
2020/12/17 11:21:08;;;;;;;10.27;6.65;;;8.10;99.90;;;;;;5049307;28;20099;-74
2020/12/17 11:23:35;;;;;;;10.23;6.75;;;8.10;99.90;;;;;;5049971;28;20494;-74
2020/12/17 11:26:04;;;;;;;19.95;10.85;;;8.00;99.90;;;;;;5045910;28;20045;-74
2020/12/17 11:28:31;;;;;;;10.40;6.70;;;8.00;99.90;;;;;;5048856;28;20045;-73
2020/12/17 11:30:58;;;;;;;10.35;6.53;;;7.90;99.90;;;;;;5048698;28;20053;-75
2020/12/17 11:33:25;;;;;;;11.13;6.63;;;7.90;99.90;;;;;;5050818;28;20557;-73
2020/12/17 11:35:53;;;;;;;8.50;6.95;;;7.90;99.90;;;;;;5050068;28;20056;-72
2020/12/17 11:38:20;;;;;;;13.25;7.28;;;8.00;99.90;;;;;;5050844;28;20052;-74
2020/12/17 11:40:55;;;;;;;11.40;6.88;;;8.00;99.90;;;;;;5048026;28;20052;-74
2020/12/17 11:43:33;;;;;;;12.95;7.38;;;8.10;99.90;;;;;;5046530;28;20102;-74
2020/12/17 11:46:02;;;;;;;9.27;6.80;;;8.10;99.90;;;;;;5049354;28;20041;-74
2020/12/17 11:48:29;;;;;;;8.75;6.38;;;8.20;99.90;;;;;;5047332;28;20049;-74
2020/12/17 11:50:56;;;;;;;12.02;6.82;;;8.10;99.90;;;;;;5050258;28;20132;-73
2020/12/17 11:53:23;;;;;;;10.55;7.25;;;8.20;99.90;;;;;;5050625;28;20206;-74
2020/12/17 11:55:49;;;;;;;9.05;6.63;;;8.20;99.90;;;;;;5046869;28;20072;-74
2020/12/17 11:58:16;;;;;;;10.73;7.20;;;8.30;99.90;;;;;;5048539;28;20154;-74
2020/12/17 12:00:43;;;;;;;10.07;6.72;;;8.50;99.90;;;;;;5050573;28;20100;-74
2020/12/17 12:03:10;;;;;;;9.35;6.50;;;8.60;99.90;;;;;;5049049;28;20045;-74
2020/12/17 12:05:36;;;;;;;12.60;7.00;;;8.60;99.90;;;;;;5050202;28;20048;-74
2020/12/17 12:08:05;;;;;;;9.00;7.00;;;8.60;99.90;;;;;;5050458;28;20050;-74
2020/12/17 12:10:31;;;;;;;8.52;6.30;;;8.60;99.90;;;;;;5047166;28;20141;-74
2020/12/17 12:12:58;;;;;;;9.45;6.65;;;8.60;99.90;;;;;;5048191;28;20045;-75
2020/12/17 12:15:25;;;;;;;12.15;6.75;;;8.60;99.90;;;;;;5048168;28;20154;-74
2020/12/17 12:17:52;;;;;;;9.38;6.05;;;8.50;99.90;;;;;;5050184;28;20057;-75
2020/12/17 12:20:19;;;;;;;7.75;6.18;;;8.50;99.90;;;;;;5049826;28;20099;-74
2020/12/17 12:22:46;;;;;;;9.02;6.57;;;8.50;99.90;;;;;;5048860;28;20056;-74
2020/12/17 12:25:12;;;;;;;11.95;6.75;;;8.50;99.90;;;;;;5048561;28;20530;-74
2020/12/17 12:27:39;;;;;;;10.52;6.60;;;8.50;99.90;;;;;;5049302;28;20045;-75
2020/12/17 12:30:05;;;;;;;10.85;6.43;;;8.50;99.90;;;;;;5049107;28;20423;-75
2020/12/17 12:32:33;;;;;;;9.95;7.05;;;8.60;99.90;;;;;;5048779;28;20400;-73
2020/12/17 12:35:00;;;;;;;9.68;6.65;;;8.60;99.90;;;;;;5048689;28;20099;-74
2020/12/17 12:37:26;;;;;;;8.95;6.40;;;8.70;99.90;;;;;;5047642;28;20048;-75
2020/12/17 12:39:52;;;;;;;9.38;6.72;;;8.70;99.90;;;;;;5047780;28;20468;-74
2020/12/17 12:42:19;;;;;;;9.60;6.13;;;8.60;99.90;;;;;;5048558;28;20128;-75
2020/12/17 12:44:45;;;;;;;10.40;6.97;;;8.60;99.90;;;;;;5044418;28;20057;-74
2020/12/17 12:47:12;;;;;;;14.38;8.50;;;8.50;99.90;;;;;;5046046;28;20469;-75
2020/12/17 12:49:39;;;;;;;12.48;8.05;;;8.60;99.90;;;;;;5048940;28;20056;-76
2020/12/17 12:52:07;;;;;;;10.93;7.45;;;8.60;99.90;;;;;;5048610;28;20487;-75
2020/12/17 12:54:33;;;;;;;9.52;6.63;;;8.60;99.90;;;;;;5046036;28;20044;-74